sensor_id;sensor_type;location;lat;lon;timestamp;temperature;humidity
60469;DHT22;46316;47.582;10.238;2022-12-07T00:00:26;0.50;91.20
60469;DHT22;46316;47.582;10.238;2022-12-07T00:02:51;0.50;91.00
60469;DHT22;46316;47.582;10.238;2022-12-07T00:05:17;0.50;91.00
60469;DHT22;46316;47.582;10.238;2022-12-07T00:07:42;0.60;91.00
60469;DHT22;46316;47.582;10.238;2022-12-07T00:10:08;0.60;91.00
60469;DHT22;46316;47.582;10.238;2022-12-07T00:12:33;0.60;90.90
60469;DHT22;46316;47.582;10.238;2022-12-07T00:14:58;0.60;90.90
60469;DHT22;46316;47.582;10.238;2022-12-07T00:17:24;0.70;90.90
60469;DHT22;46316;47.582;10.238;2022-12-07T00:19:49;0.70;90.80
60469;DHT22;46316;47.582;10.238;2022-12-07T00:22:15;0.70;90.70
60469;DHT22;46316;47.582;10.238;2022-12-07T00:24:40;0.70;90.70
60469;DHT22;46316;47.582;10.238;2022-12-07T00:27:06;0.70;90.80
60469;DHT22;46316;47.582;10.238;2022-12-07T00:29:31;0.60;90.60
60469;DHT22;46316;47.582;10.238;2022-12-07T00:31:57;0.70;90.80
60469;DHT22;46316;47.582;10.238;2022-12-07T00:34:22;0.70;90.80
60469;DHT22;46316;47.582;10.238;2022-12-07T00:36:48;0.70;90.90
60469;DHT22;46316;47.582;10.238;2022-12-07T00:39:13;0.70;90.90
60469;DHT22;46316;47.582;10.238;2022-12-07T00:41:39;0.70;90.80
60469;DHT22;46316;47.582;10.238;2022-12-07T00:44:05;0.70;90.80
60469;DHT22;46316;47.582;10.238;2022-12-07T00:46:30;0.70;90.70
60469;DHT22;46316;47.582;10.238;2022-12-07T00:48:55;0.70;90.70
60469;DHT22;46316;47.582;10.238;2022-12-07T00:51:22;0.70;90.70
60469;DHT22;46316;47.582;10.238;2022-12-07T00:53:48;0.70;90.80
60469;DHT22;46316;47.582;10.238;2022-12-07T00:56:24;0.70;90.80
60469;DHT22;46316;47.582;10.238;2022-12-07T00:58:57;0.70;90.90
60469;DHT22;46316;47.582;10.238;2022-12-07T01:01:23;0.70;90.90
60469;DHT22;46316;47.582;10.238;2022-12-07T01:03:49;0.70;90.80
60469;DHT22;46316;47.582;10.238;2022-12-07T01:06:15;0.60;90.80
60469;DHT22;46316;47.582;10.238;2022-12-07T01:08:41;0.70;90.90
60469;DHT22;46316;47.582;10.238;2022-12-07T01:11:07;0.70;91.00
60469;DHT22;46316;47.582;10.238;2022-12-07T01:13:33;0.70;90.90
60469;DHT22;46316;47.582;10.238;2022-12-07T01:16:00;0.70;90.90
60469;DHT22;46316;47.582;10.238;2022-12-07T01:18:29;0.80;91.00
60469;DHT22;46316;47.582;10.238;2022-12-07T01:21:02;0.80;91.00
60469;DHT22;46316;47.582;10.238;2022-12-07T01:23:28;0.80;90.90
60469;DHT22;46316;47.582;10.238;2022-12-07T01:25:55;0.80;90.90
60469;DHT22;46316;47.582;10.238;2022-12-07T01:28:20;0.80;90.90
60469;DHT22;46316;47.582;10.238;2022-12-07T01:30:54;0.80;90.80
60469;DHT22;46316;47.582;10.238;2022-12-07T01:33:19;0.80;90.70
60469;DHT22;46316;47.582;10.238;2022-12-07T01:35:45;0.80;90.70
60469;DHT22;46316;47.582;10.238;2022-12-07T01:38:10;0.80;90.50
60469;DHT22;46316;47.582;10.238;2022-12-07T01:40:35;0.70;90.50
60469;DHT22;46316;47.582;10.238;2022-12-07T01:43:01;0.70;90.60
60469;DHT22;46316;47.582;10.238;2022-12-07T01:45:40;0.70;90.80
60469;DHT22;46316;47.582;10.238;2022-12-07T01:48:06;0.70;90.70
60469;DHT22;46316;47.582;10.238;2022-12-07T01:50:32;0.70;90.70
60469;DHT22;46316;47.582;10.238;2022-12-07T01:52:58;0.60;90.70
60469;DHT22;46316;47.582;10.238;2022-12-07T01:55:26;0.70;90.80
60469;DHT22;46316;47.582;10.238;2022-12-07T01:57:52;0.70;90.70
60469;DHT22;46316;47.582;10.238;2022-12-07T02:00:19;0.60;90.80
60469;DHT22;46316;47.582;10.238;2022-12-07T02:02:48;0.60;90.80
60469;DHT22;46316;47.582;10.238;2022-12-07T02:05:16;0.70;91.00
60469;DHT22;46316;47.582;10.238;2022-12-07T02:07:42;0.70;91.00
60469;DHT22;46316;47.582;10.238;2022-12-07T02:10:19;0.70;91.00
60469;DHT22;46316;47.582;10.238;2022-12-07T02:12:45;0.70;90.90
60469;DHT22;46316;47.582;10.238;2022-12-07T02:15:12;0.70;90.90
60469;DHT22;46316;47.582;10.238;2022-12-07T02:17:41;0.70;90.80
60469;DHT22;46316;47.582;10.238;2022-12-07T02:20:17;0.80;91.00
60469;DHT22;46316;47.582;10.238;2022-12-07T02:23:04;0.70;90.90
60469;DHT22;46316;47.582;10.238;2022-12-07T02:28:19;0.70;90.90
60469;DHT22;46316;47.582;10.238;2022-12-07T02:30:47;0.80;90.80
60469;DHT22;46316;47.582;10.238;2022-12-07T02:33:14;0.80;90.80
60469;DHT22;46316;47.582;10.238;2022-12-07T02:35:46;0.80;90.70
60469;DHT22;46316;47.582;10.238;2022-12-07T02:40:49;0.80;90.80
60469;DHT22;46316;47.582;10.238;2022-12-07T02:43:17;0.80;90.70
60469;DHT22;46316;47.582;10.238;2022-12-07T02:45:44;0.80;90.70
60469;DHT22;46316;47.582;10.238;2022-12-07T02:48:12;0.80;90.70
60469;DHT22;46316;47.582;10.238;2022-12-07T02:50:38;0.80;90.70
60469;DHT22;46316;47.582;10.238;2022-12-07T02:53:03;0.80;90.60
60469;DHT22;46316;47.582;10.238;2022-12-07T02:55:31;0.90;90.60
60469;DHT22;46316;47.582;10.238;2022-12-07T02:58:17;0.90;90.60
60469;DHT22;46316;47.582;10.238;2022-12-07T03:01:10;0.80;90.60
60469;DHT22;46316;47.582;10.238;2022-12-07T03:03:32;0.90;90.70
60469;DHT22;46316;47.582;10.238;2022-12-07T03:08:46;0.90;90.70
60469;DHT22;46316;47.582;10.238;2022-12-07T03:11:22;0.90;90.70
60469;DHT22;46316;47.582;10.238;2022-12-07T03:13:55;0.80;90.60
60469;DHT22;46316;47.582;10.238;2022-12-07T03:21:17;0.80;90.60
60469;DHT22;46316;47.582;10.238;2022-12-07T03:23:45;0.90;90.60
60469;DHT22;46316;47.582;10.238;2022-12-07T03:26:12;0.90;90.70
60469;DHT22;46316;47.582;10.238;2022-12-07T03:28:40;0.90;90.60
60469;DHT22;46316;47.582;10.238;2022-12-07T03:31:16;0.90;90.60
60469;DHT22;46316;47.582;10.238;2022-12-07T03:33:46;0.90;90.50
60469;DHT22;46316;47.582;10.238;2022-12-07T03:39:07;0.90;90.50
60469;DHT22;46316;47.582;10.238;2022-12-07T03:41:34;0.90;90.60
60469;DHT22;46316;47.582;10.238;2022-12-07T03:44:00;0.90;90.50
60469;DHT22;46316;47.582;10.238;2022-12-07T03:46:48;0.90;90.60
60469;DHT22;46316;47.582;10.238;2022-12-07T03:49:18;0.90;90.40
60469;DHT22;46316;47.582;10.238;2022-12-07T03:54:32;1.00;90.20
60469;DHT22;46316;47.582;10.238;2022-12-07T03:56:59;0.90;90.00
60469;DHT22;46316;47.582;10.238;2022-12-07T03:59:26;1.00;90.00
60469;DHT22;46316;47.582;10.238;2022-12-07T04:01:53;1.00;90.00
60469;DHT22;46316;47.582;10.238;2022-12-07T04:04:19;1.00;90.00
60469;DHT22;46316;47.582;10.238;2022-12-07T04:06:44;1.00;90.10
60469;DHT22;46316;47.582;10.238;2022-12-07T04:09:10;1.00;90.10
60469;DHT22;46316;47.582;10.238;2022-12-07T04:11:35;1.00;90.10
60469;DHT22;46316;47.582;10.238;2022-12-07T04:14:01;1.00;90.30
60469;DHT22;46316;47.582;10.238;2022-12-07T04:16:48;1.00;90.50
60469;DHT22;46316;47.582;10.238;2022-12-07T04:19:14;1.00;90.40
60469;DHT22;46316;47.582;10.238;2022-12-07T04:21:40;1.00;90.40
60469;DHT22;46316;47.582;10.238;2022-12-07T04:24:06;1.00;90.30
60469;DHT22;46316;47.582;10.238;2022-12-07T04:26:31;1.10;90.30
60469;DHT22;46316;47.582;10.238;2022-12-07T04:28:57;1.00;90.40
60469;DHT22;46316;47.582;10.238;2022-12-07T04:31:22;1.10;90.40
60469;DHT22;46316;47.582;10.238;2022-12-07T04:33:48;1.10;90.40
60469;DHT22;46316;47.582;10.238;2022-12-07T04:36:13;1.20;90.40
60469;DHT22;46316;47.582;10.238;2022-12-07T04:38:39;1.20;90.40
60469;DHT22;46316;47.582;10.238;2022-12-07T04:41:05;1.20;90.30
60469;DHT22;46316;47.582;10.238;2022-12-07T04:43:32;1.20;90.40
60469;DHT22;46316;47.582;10.238;2022-12-07T04:45:57;1.20;90.40
60469;DHT22;46316;47.582;10.238;2022-12-07T04:48:23;1.20;90.60
60469;DHT22;46316;47.582;10.238;2022-12-07T04:50:49;1.30;90.40
60469;DHT22;46316;47.582;10.238;2022-12-07T04:53:17;1.20;90.20
60469;DHT22;46316;47.582;10.238;2022-12-07T04:55:43;1.20;90.40
60469;DHT22;46316;47.582;10.238;2022-12-07T04:58:09;1.20;90.50
60469;DHT22;46316;47.582;10.238;2022-12-07T05:00:34;1.20;90.60
60469;DHT22;46316;47.582;10.238;2022-12-07T05:03:00;1.20;90.60
60469;DHT22;46316;47.582;10.238;2022-12-07T05:05:25;1.30;90.80
60469;DHT22;46316;47.582;10.238;2022-12-07T05:07:51;1.30;91.00
60469;DHT22;46316;47.582;10.238;2022-12-07T05:10:16;1.30;91.00
60469;DHT22;46316;47.582;10.238;2022-12-07T05:12:42;1.30;91.20
60469;DHT22;46316;47.582;10.238;2022-12-07T05:15:07;1.30;91.20
60469;DHT22;46316;47.582;10.238;2022-12-07T05:17:33;1.30;91.30
60469;DHT22;46316;47.582;10.238;2022-12-07T05:19:59;1.40;91.40
60469;DHT22;46316;47.582;10.238;2022-12-07T05:22:24;1.40;91.40
60469;DHT22;46316;47.582;10.238;2022-12-07T05:24:57;1.40;91.30
60469;DHT22;46316;47.582;10.238;2022-12-07T05:27:22;1.30;91.50
60469;DHT22;46316;47.582;10.238;2022-12-07T05:29:49;1.40;91.50
60469;DHT22;46316;47.582;10.238;2022-12-07T05:32:15;1.40;91.60
60469;DHT22;46316;47.582;10.238;2022-12-07T05:34:40;1.40;91.50
60469;DHT22;46316;47.582;10.238;2022-12-07T05:37:06;1.40;91.60
60469;DHT22;46316;47.582;10.238;2022-12-07T05:39:31;1.40;91.50
60469;DHT22;46316;47.582;10.238;2022-12-07T05:41:57;1.40;91.60
60469;DHT22;46316;47.582;10.238;2022-12-07T05:44:38;1.40;91.70
60469;DHT22;46316;47.582;10.238;2022-12-07T05:47:04;1.40;91.60
60469;DHT22;46316;47.582;10.238;2022-12-07T05:49:30;1.40;91.50
60469;DHT22;46316;47.582;10.238;2022-12-07T05:51:55;1.40;91.60
60469;DHT22;46316;47.582;10.238;2022-12-07T05:54:21;1.40;91.60
60469;DHT22;46316;47.582;10.238;2022-12-07T05:56:47;1.40;91.70
60469;DHT22;46316;47.582;10.238;2022-12-07T05:59:12;1.40;91.50
60469;DHT22;46316;47.582;10.238;2022-12-07T06:02:01;1.40;91.40
60469;DHT22;46316;47.582;10.238;2022-12-07T06:04:28;1.40;91.40
60469;DHT22;46316;47.582;10.238;2022-12-07T06:06:53;1.40;91.40
60469;DHT22;46316;47.582;10.238;2022-12-07T06:09:20;1.40;91.40
60469;DHT22;46316;47.582;10.238;2022-12-07T06:11:45;1.40;91.40
60469;DHT22;46316;47.582;10.238;2022-12-07T06:14:30;1.40;91.40
60469;DHT22;46316;47.582;10.238;2022-12-07T06:16:55;1.40;91.30
60469;DHT22;46316;47.582;10.238;2022-12-07T06:19:21;1.40;91.30
60469;DHT22;46316;47.582;10.238;2022-12-07T06:21:47;1.40;91.40
60469;DHT22;46316;47.582;10.238;2022-12-07T06:24:12;1.40;91.30
60469;DHT22;46316;47.582;10.238;2022-12-07T06:26:38;1.40;91.40
60469;DHT22;46316;47.582;10.238;2022-12-07T06:29:04;1.40;91.50
60469;DHT22;46316;47.582;10.238;2022-12-07T06:31:30;1.50;91.50
60469;DHT22;46316;47.582;10.238;2022-12-07T06:34:02;1.40;91.50
60469;DHT22;46316;47.582;10.238;2022-12-07T06:36:28;1.50;91.50
60469;DHT22;46316;47.582;10.238;2022-12-07T06:38:54;1.50;91.50
60469;DHT22;46316;47.582;10.238;2022-12-07T06:41:19;1.50;91.50
60469;DHT22;46316;47.582;10.238;2022-12-07T06:43:45;1.50;91.50
60469;DHT22;46316;47.582;10.238;2022-12-07T06:46:11;1.50;91.40
60469;DHT22;46316;47.582;10.238;2022-12-07T06:48:38;1.50;91.30
60469;DHT22;46316;47.582;10.238;2022-12-07T06:51:04;1.50;91.30
60469;DHT22;46316;47.582;10.238;2022-12-07T06:53:29;1.50;91.30
60469;DHT22;46316;47.582;10.238;2022-12-07T06:55:55;1.50;91.30
60469;DHT22;46316;47.582;10.238;2022-12-07T06:58:20;1.50;91.30
60469;DHT22;46316;47.582;10.238;2022-12-07T07:00:47;1.50;91.30
60469;DHT22;46316;47.582;10.238;2022-12-07T07:03:13;1.50;91.20
60469;DHT22;46316;47.582;10.238;2022-12-07T07:05:38;1.50;91.20
60469;DHT22;46316;47.582;10.238;2022-12-07T07:08:04;1.50;91.30
60469;DHT22;46316;47.582;10.238;2022-12-07T07:10:30;1.50;91.10
60469;DHT22;46316;47.582;10.238;2022-12-07T07:12:55;1.50;91.00
60469;DHT22;46316;47.582;10.238;2022-12-07T07:15:21;1.50;91.00
60469;DHT22;46316;47.582;10.238;2022-12-07T07:17:46;1.50;91.10
60469;DHT22;46316;47.582;10.238;2022-12-07T07:20:12;1.40;91.10
60469;DHT22;46316;47.582;10.238;2022-12-07T07:22:37;1.40;91.20
60469;DHT22;46316;47.582;10.238;2022-12-07T07:25:03;1.40;91.20
60469;DHT22;46316;47.582;10.238;2022-12-07T07:27:28;1.40;91.30
60469;DHT22;46316;47.582;10.238;2022-12-07T07:29:54;1.40;91.40
60469;DHT22;46316;47.582;10.238;2022-12-07T07:32:19;1.40;91.50
60469;DHT22;46316;47.582;10.238;2022-12-07T07:34:46;1.40;91.40
60469;DHT22;46316;47.582;10.238;2022-12-07T07:37:12;1.40;91.40
60469;DHT22;46316;47.582;10.238;2022-12-07T07:39:38;1.40;91.50
60469;DHT22;46316;47.582;10.238;2022-12-07T07:42:04;1.40;91.40
60469;DHT22;46316;47.582;10.238;2022-12-07T07:44:29;1.40;91.40
60469;DHT22;46316;47.582;10.238;2022-12-07T07:46:54;1.40;91.30
60469;DHT22;46316;47.582;10.238;2022-12-07T07:49:20;1.40;91.20
60469;DHT22;46316;47.582;10.238;2022-12-07T07:51:45;1.40;91.40
60469;DHT22;46316;47.582;10.238;2022-12-07T07:54:11;1.50;91.20
60469;DHT22;46316;47.582;10.238;2022-12-07T07:56:36;1.50;91.10
60469;DHT22;46316;47.582;10.238;2022-12-07T07:59:02;1.50;91.00
60469;DHT22;46316;47.582;10.238;2022-12-07T08:01:27;1.60;91.00
60469;DHT22;46316;47.582;10.238;2022-12-07T08:03:53;1.50;91.00
60469;DHT22;46316;47.582;10.238;2022-12-07T08:06:18;1.50;91.10
60469;DHT22;46316;47.582;10.238;2022-12-07T08:08:44;1.50;91.10
60469;DHT22;46316;47.582;10.238;2022-12-07T08:11:09;1.60;91.00
60469;DHT22;46316;47.582;10.238;2022-12-07T08:13:36;1.60;91.00
60469;DHT22;46316;47.582;10.238;2022-12-07T08:16:08;1.60;90.90
60469;DHT22;46316;47.582;10.238;2022-12-07T08:18:37;1.60;90.90
60469;DHT22;46316;47.582;10.238;2022-12-07T08:21:03;1.60;90.90
60469;DHT22;46316;47.582;10.238;2022-12-07T08:23:29;1.70;90.90
60469;DHT22;46316;47.582;10.238;2022-12-07T08:25:55;1.70;90.90
60469;DHT22;46316;47.582;10.238;2022-12-07T08:28:24;1.70;90.90
60469;DHT22;46316;47.582;10.238;2022-12-07T08:30:50;1.70;90.90
60469;DHT22;46316;47.582;10.238;2022-12-07T08:33:15;1.80;90.70
60469;DHT22;46316;47.582;10.238;2022-12-07T08:35:41;1.80;90.70
60469;DHT22;46316;47.582;10.238;2022-12-07T08:38:06;1.80;90.60
60469;DHT22;46316;47.582;10.238;2022-12-07T08:40:32;1.90;90.40
60469;DHT22;46316;47.582;10.238;2022-12-07T08:42:57;1.90;90.20
60469;DHT22;46316;47.582;10.238;2022-12-07T08:45:23;1.90;90.20
60469;DHT22;46316;47.582;10.238;2022-12-07T08:47:59;2.00;90.30
60469;DHT22;46316;47.582;10.238;2022-12-07T08:50:27;2.10;90.30
60469;DHT22;46316;47.582;10.238;2022-12-07T08:52:53;2.10;90.00
60469;DHT22;46316;47.582;10.238;2022-12-07T08:55:20;2.20;90.00
60469;DHT22;46316;47.582;10.238;2022-12-07T08:57:45;2.10;89.90
60469;DHT22;46316;47.582;10.238;2022-12-07T09:00:11;2.20;90.00
60469;DHT22;46316;47.582;10.238;2022-12-07T09:02:37;2.20;89.70
60469;DHT22;46316;47.582;10.238;2022-12-07T09:05:02;2.20;89.60
60469;DHT22;46316;47.582;10.238;2022-12-07T09:07:28;2.30;89.50
60469;DHT22;46316;47.582;10.238;2022-12-07T09:09:55;2.30;89.30
60469;DHT22;46316;47.582;10.238;2022-12-07T09:12:21;2.40;89.30
60469;DHT22;46316;47.582;10.238;2022-12-07T09:14:46;2.40;89.10
60469;DHT22;46316;47.582;10.238;2022-12-07T09:17:12;2.40;89.00
60469;DHT22;46316;47.582;10.238;2022-12-07T09:19:38;2.40;88.70
60469;DHT22;46316;47.582;10.238;2022-12-07T09:22:04;2.40;88.60
60469;DHT22;46316;47.582;10.238;2022-12-07T09:24:30;2.50;88.20
60469;DHT22;46316;47.582;10.238;2022-12-07T09:26:56;2.50;88.10
60469;DHT22;46316;47.582;10.238;2022-12-07T09:29:22;2.40;88.20
60469;DHT22;46316;47.582;10.238;2022-12-07T09:31:47;2.40;88.40
60469;DHT22;46316;47.582;10.238;2022-12-07T09:34:13;2.20;88.90
60469;DHT22;46316;47.582;10.238;2022-12-07T09:36:38;2.10;88.80
60469;DHT22;46316;47.582;10.238;2022-12-07T09:39:04;2.10;89.20
60469;DHT22;46316;47.582;10.238;2022-12-07T09:41:30;2.10;89.30
60469;DHT22;46316;47.582;10.238;2022-12-07T09:43:59;2.10;89.40
60469;DHT22;46316;47.582;10.238;2022-12-07T09:46:28;2.10;89.30
60469;DHT22;46316;47.582;10.238;2022-12-07T09:48:55;2.10;89.50
60469;DHT22;46316;47.582;10.238;2022-12-07T09:51:21;2.20;89.60
60469;DHT22;46316;47.582;10.238;2022-12-07T09:53:48;2.10;89.50
60469;DHT22;46316;47.582;10.238;2022-12-07T09:56:14;2.10;89.30
60469;DHT22;46316;47.582;10.238;2022-12-07T09:58:40;2.10;89.20
60469;DHT22;46316;47.582;10.238;2022-12-07T10:03:32;2.10;89.10
60469;DHT22;46316;47.582;10.238;2022-12-07T10:05:58;2.00;89.10
60469;DHT22;46316;47.582;10.238;2022-12-07T10:08:24;2.00;89.20
60469;DHT22;46316;47.582;10.238;2022-12-07T10:10:51;1.90;89.10
60469;DHT22;46316;47.582;10.238;2022-12-07T10:13:21;1.90;89.10
60469;DHT22;46316;47.582;10.238;2022-12-07T10:15:48;1.90;89.20
60469;DHT22;46316;47.582;10.238;2022-12-07T10:18:18;1.90;89.20
60469;DHT22;46316;47.582;10.238;2022-12-07T10:20:45;1.90;89.00
60469;DHT22;46316;47.582;10.238;2022-12-07T10:23:17;1.90;89.00
60469;DHT22;46316;47.582;10.238;2022-12-07T10:25:43;1.90;89.20
60469;DHT22;46316;47.582;10.238;2022-12-07T10:30:46;1.90;88.80
60469;DHT22;46316;47.582;10.238;2022-12-07T10:33:27;2.00;88.20
60469;DHT22;46316;47.582;10.238;2022-12-07T10:35:53;2.00;88.30
60469;DHT22;46316;47.582;10.238;2022-12-07T10:38:19;1.90;88.30
60469;DHT22;46316;47.582;10.238;2022-12-07T10:40:44;1.90;88.20
60469;DHT22;46316;47.582;10.238;2022-12-07T10:43:17;1.90;88.10
60469;DHT22;46316;47.582;10.238;2022-12-07T10:48:28;1.90;88.30
60469;DHT22;46316;47.582;10.238;2022-12-07T10:51:30;1.90;88.20
60469;DHT22;46316;47.582;10.238;2022-12-07T10:53:51;1.80;88.20
60469;DHT22;46316;47.582;10.238;2022-12-07T11:06:38;1.90;88.20
60469;DHT22;46316;47.582;10.238;2022-12-07T11:11:48;1.80;88.20
60469;DHT22;46316;47.582;10.238;2022-12-07T11:21:52;2.00;88.30
60469;DHT22;46316;47.582;10.238;2022-12-07T11:24:39;1.90;88.10
60469;DHT22;46316;47.582;10.238;2022-12-07T11:32:59;2.00;88.10
60469;DHT22;46316;47.582;10.238;2022-12-07T11:37:59;2.00;88.20
60469;DHT22;46316;47.582;10.238;2022-12-07T11:40:30;2.10;87.80
60469;DHT22;46316;47.582;10.238;2022-12-07T11:43:02;2.00;87.70
60469;DHT22;46316;47.582;10.238;2022-12-07T11:45:31;2.10;88.00
60469;DHT22;46316;47.582;10.238;2022-12-07T11:48:01;2.00;87.60
60469;DHT22;46316;47.582;10.238;2022-12-07T12:00:43;2.20;88.20
60469;DHT22;46316;47.582;10.238;2022-12-07T12:03:15;2.30;88.00
60469;DHT22;46316;47.582;10.238;2022-12-07T12:05:42;2.40;88.00
60469;DHT22;46316;47.582;10.238;2022-12-07T12:08:26;2.50;87.90
60469;DHT22;46316;47.582;10.238;2022-12-07T12:18:25;2.90;86.50
60469;DHT22;46316;47.582;10.238;2022-12-07T12:21:06;2.90;86.40
60469;DHT22;46316;47.582;10.238;2022-12-07T12:23:48;2.90;86.30
60469;DHT22;46316;47.582;10.238;2022-12-07T12:26:16;2.80;86.50
60469;DHT22;46316;47.582;10.238;2022-12-07T12:29:03;2.80;86.70
60469;DHT22;46316;47.582;10.238;2022-12-07T12:31:37;2.90;86.40
60469;DHT22;46316;47.582;10.238;2022-12-07T12:34:29;3.00;86.20
60469;DHT22;46316;47.582;10.238;2022-12-07T12:36:49;2.90;86.00
60469;DHT22;46316;47.582;10.238;2022-12-07T12:39:18;3.00;85.80
60469;DHT22;46316;47.582;10.238;2022-12-07T12:46:46;3.00;85.20
60469;DHT22;46316;47.582;10.238;2022-12-07T12:51:42;3.00;85.30
60469;DHT22;46316;47.582;10.238;2022-12-07T12:54:18;3.10;85.30
60469;DHT22;46316;47.582;10.238;2022-12-07T12:56:49;3.00;85.10
60469;DHT22;46316;47.582;10.238;2022-12-07T13:02:16;3.10;85.00
60469;DHT22;46316;47.582;10.238;2022-12-07T13:04:51;3.10;84.80
60469;DHT22;46316;47.582;10.238;2022-12-07T13:08:18;3.10;85.10
60469;DHT22;46316;47.582;10.238;2022-12-07T13:15:38;3.10;84.40
60469;DHT22;46316;47.582;10.238;2022-12-07T13:23:17;3.00;84.90
60469;DHT22;46316;47.582;10.238;2022-12-07T13:25:45;3.00;85.10
60469;DHT22;46316;47.582;10.238;2022-12-07T13:28:17;3.00;84.90
60469;DHT22;46316;47.582;10.238;2022-12-07T13:33:12;2.90;85.00
60469;DHT22;46316;47.582;10.238;2022-12-07T13:35:38;2.90;85.20
60469;DHT22;46316;47.582;10.238;2022-12-07T13:38:04;2.90;85.40
60469;DHT22;46316;47.582;10.238;2022-12-07T13:40:30;2.80;85.60
60469;DHT22;46316;47.582;10.238;2022-12-07T13:43:00;2.80;85.70
60469;DHT22;46316;47.582;10.238;2022-12-07T13:45:31;2.80;85.80
60469;DHT22;46316;47.582;10.238;2022-12-07T13:48:16;2.80;85.70
60469;DHT22;46316;47.582;10.238;2022-12-07T13:50:47;2.80;85.70
60469;DHT22;46316;47.582;10.238;2022-12-07T13:53:17;2.80;85.80
60469;DHT22;46316;47.582;10.238;2022-12-07T13:55:47;2.80;85.90
60469;DHT22;46316;47.582;10.238;2022-12-07T13:58:12;2.80;86.00
60469;DHT22;46316;47.582;10.238;2022-12-07T14:00:39;2.80;86.20
60469;DHT22;46316;47.582;10.238;2022-12-07T14:05:37;2.80;86.10
60469;DHT22;46316;47.582;10.238;2022-12-07T14:08:04;2.80;86.20
60469;DHT22;46316;47.582;10.238;2022-12-07T14:12:56;2.70;86.30
60469;DHT22;46316;47.582;10.238;2022-12-07T14:15:23;2.80;86.10
60469;DHT22;46316;47.582;10.238;2022-12-07T14:17:50;2.80;86.40
60469;DHT22;46316;47.582;10.238;2022-12-07T14:20:32;2.80;86.50
60469;DHT22;46316;47.582;10.238;2022-12-07T14:22:57;2.70;86.40
60469;DHT22;46316;47.582;10.238;2022-12-07T14:25:25;2.70;86.50
60469;DHT22;46316;47.582;10.238;2022-12-07T14:30:18;2.70;86.10
60469;DHT22;46316;47.582;10.238;2022-12-07T14:32:44;2.70;86.50
60469;DHT22;46316;47.582;10.238;2022-12-07T14:35:15;2.60;86.70
60469;DHT22;46316;47.582;10.238;2022-12-07T14:37:42;2.50;87.10
60469;DHT22;46316;47.582;10.238;2022-12-07T14:40:11;2.50;87.30
60469;DHT22;46316;47.582;10.238;2022-12-07T14:42:37;2.50;87.40
60469;DHT22;46316;47.582;10.238;2022-12-07T14:45:03;2.40;87.30
60469;DHT22;46316;47.582;10.238;2022-12-07T14:47:30;2.50;87.20
60469;DHT22;46316;47.582;10.238;2022-12-07T14:49:55;2.40;87.50
60469;DHT22;46316;47.582;10.238;2022-12-07T14:52:21;2.40;87.60
60469;DHT22;46316;47.582;10.238;2022-12-07T14:54:49;2.40;87.60
60469;DHT22;46316;47.582;10.238;2022-12-07T14:57:14;2.40;87.60
60469;DHT22;46316;47.582;10.238;2022-12-07T14:59:40;2.40;87.80
60469;DHT22;46316;47.582;10.238;2022-12-07T15:02:06;2.40;87.80
60469;DHT22;46316;47.582;10.238;2022-12-07T15:04:32;2.30;87.60
60469;DHT22;46316;47.582;10.238;2022-12-07T15:06:58;2.40;87.80
60469;DHT22;46316;47.582;10.238;2022-12-07T15:09:24;2.30;88.00
60469;DHT22;46316;47.582;10.238;2022-12-07T15:11:49;2.30;88.20
60469;DHT22;46316;47.582;10.238;2022-12-07T15:14:16;2.30;88.30
60469;DHT22;46316;47.582;10.238;2022-12-07T15:16:42;2.30;88.50
60469;DHT22;46316;47.582;10.238;2022-12-07T15:19:17;2.20;88.60
60469;DHT22;46316;47.582;10.238;2022-12-07T15:21:43;2.20;88.60
60469;DHT22;46316;47.582;10.238;2022-12-07T15:24:12;2.10;88.70
60469;DHT22;46316;47.582;10.238;2022-12-07T15:26:38;2.20;88.50
60469;DHT22;46316;47.582;10.238;2022-12-07T15:29:04;2.10;88.50
60469;DHT22;46316;47.582;10.238;2022-12-07T15:31:30;2.10;88.60
60469;DHT22;46316;47.582;10.238;2022-12-07T15:33:55;2.10;88.80
60469;DHT22;46316;47.582;10.238;2022-12-07T15:36:22;2.10;88.80
60469;DHT22;46316;47.582;10.238;2022-12-07T15:38:48;2.10;88.90
60469;DHT22;46316;47.582;10.238;2022-12-07T15:41:14;2.10;88.80
60469;DHT22;46316;47.582;10.238;2022-12-07T15:43:39;2.00;88.90
60469;DHT22;46316;47.582;10.238;2022-12-07T15:46:23;2.00;89.10
60469;DHT22;46316;47.582;10.238;2022-12-07T15:48:53;2.00;89.20
60469;DHT22;46316;47.582;10.238;2022-12-07T15:51:19;2.00;89.10
60469;DHT22;46316;47.582;10.238;2022-12-07T15:53:44;1.90;89.20
60469;DHT22;46316;47.582;10.238;2022-12-07T15:56:10;1.90;89.30
60469;DHT22;46316;47.582;10.238;2022-12-07T15:58:35;1.90;89.40
60469;DHT22;46316;47.582;10.238;2022-12-07T16:01:09;1.90;89.50
60469;DHT22;46316;47.582;10.238;2022-12-07T16:03:34;1.90;89.50
60469;DHT22;46316;47.582;10.238;2022-12-07T16:06:00;1.90;89.60
60469;DHT22;46316;47.582;10.238;2022-12-07T16:08:25;1.90;89.70
60469;DHT22;46316;47.582;10.238;2022-12-07T16:10:51;1.80;89.70
60469;DHT22;46316;47.582;10.238;2022-12-07T16:13:16;1.90;89.70
60469;DHT22;46316;47.582;10.238;2022-12-07T16:15:43;1.90;89.70
60469;DHT22;46316;47.582;10.238;2022-12-07T16:18:09;1.80;89.70
60469;DHT22;46316;47.582;10.238;2022-12-07T16:20:34;1.80;89.60
60469;DHT22;46316;47.582;10.238;2022-12-07T16:23:00;1.80;89.80
60469;DHT22;46316;47.582;10.238;2022-12-07T16:25:25;1.80;89.90
60469;DHT22;46316;47.582;10.238;2022-12-07T16:27:51;1.80;89.80
60469;DHT22;46316;47.582;10.238;2022-12-07T16:30:17;1.80;89.90
60469;DHT22;46316;47.582;10.238;2022-12-07T16:32:43;1.80;89.90
60469;DHT22;46316;47.582;10.238;2022-12-07T16:35:08;1.80;90.00
60469;DHT22;46316;47.582;10.238;2022-12-07T16:37:34;1.80;90.10
60469;DHT22;46316;47.582;10.238;2022-12-07T16:40:00;1.80;90.20
60469;DHT22;46316;47.582;10.238;2022-12-07T16:42:25;1.80;90.20
60469;DHT22;46316;47.582;10.238;2022-12-07T16:44:51;1.80;90.10
60469;DHT22;46316;47.582;10.238;2022-12-07T16:47:17;1.80;90.10
60469;DHT22;46316;47.582;10.238;2022-12-07T16:49:42;1.70;90.10
60469;DHT22;46316;47.582;10.238;2022-12-07T16:52:08;1.70;90.10
60469;DHT22;46316;47.582;10.238;2022-12-07T16:54:33;1.70;90.20
60469;DHT22;46316;47.582;10.238;2022-12-07T16:56:59;1.70;90.20
60469;DHT22;46316;47.582;10.238;2022-12-07T16:59:25;1.70;90.20
60469;DHT22;46316;47.582;10.238;2022-12-07T17:01:50;1.70;90.20
60469;DHT22;46316;47.582;10.238;2022-12-07T17:04:17;1.70;90.30
60469;DHT22;46316;47.582;10.238;2022-12-07T17:06:42;1.70;90.30
60469;DHT22;46316;47.582;10.238;2022-12-07T17:09:07;1.70;90.50
60469;DHT22;46316;47.582;10.238;2022-12-07T17:11:35;1.70;90.30
60469;DHT22;46316;47.582;10.238;2022-12-07T17:14:01;1.70;90.40
60469;DHT22;46316;47.582;10.238;2022-12-07T17:16:45;1.70;90.40